createdAt,value
2023-05-23T00:01:55.084Z,17.39
2023-05-23T00:04:22.565Z,17.33
2023-05-23T00:06:50.744Z,17.55
2023-05-23T00:09:18.403Z,17.33
2023-05-23T00:11:45.944Z,17.29
2023-05-23T00:14:14.992Z,17.16
2023-05-23T00:16:44.046Z,17.08
2023-05-23T00:19:12.580Z,17.11
2023-05-23T00:21:39.758Z,16.93
2023-05-23T00:24:07.392Z,17.02
2023-05-23T00:26:34.647Z,17.03
2023-05-23T00:29:01.902Z,17.07
2023-05-23T00:31:29.132Z,17.00
2023-05-23T00:33:56.316Z,17.16
2023-05-23T00:36:23.687Z,16.90
2023-05-23T00:38:50.845Z,16.82
2023-05-23T00:41:20.921Z,16.84
2023-05-23T00:43:48.776Z,17.05
2023-05-23T00:46:16.472Z,16.96
2023-05-23T00:48:43.762Z,16.74
2023-05-23T00:51:11.081Z,16.40
2023-05-23T00:53:38.488Z,16.26
2023-05-23T00:56:05.975Z,16.67
2023-05-23T00:58:33.227Z,16.32
2023-05-23T01:01:00.538Z,16.53
2023-05-23T01:03:28.772Z,16.43
2023-05-23T01:05:56.723Z,16.56
2023-05-23T01:08:24.206Z,16.92
2023-05-23T01:10:52.263Z,16.48
2023-05-23T01:13:43.143Z,16.53
2023-05-23T01:16:19.562Z,16.39
2023-05-23T01:18:54.342Z,16.41
2023-05-23T01:21:23.025Z,16.55
2023-05-23T01:24:11.419Z,16.44
2023-05-23T01:26:54.348Z,16.48
2023-05-23T01:29:29.604Z,16.24
2023-05-23T01:31:58.296Z,16.31
2023-05-23T01:34:25.530Z,16.25
2023-05-23T01:36:56.486Z,16.26
2023-05-23T01:39:23.945Z,16.36
2023-05-23T01:41:52.652Z,16.29
2023-05-23T01:44:21.412Z,16.13
2023-05-23T01:46:48.771Z,16.48
2023-05-23T01:49:17.378Z,16.25
2023-05-23T01:51:45.595Z,15.72
2023-05-23T01:54:14.374Z,16.10
2023-05-23T01:56:43.000Z,16.08
2023-05-23T01:59:10.360Z,15.83
2023-05-23T02:01:38.623Z,16.19
2023-05-23T02:04:06.726Z,16.27
2023-05-23T02:06:34.248Z,16.02
2023-05-23T02:09:01.488Z,16.08
2023-05-23T02:11:28.714Z,15.73
2023-05-23T02:13:55.911Z,15.97
2023-05-23T02:16:23.293Z,15.94
2023-05-23T02:18:52.793Z,16.32
2023-05-23T02:21:20.152Z,15.81
2023-05-23T02:23:47.380Z,15.78
2023-05-23T02:26:18.019Z,15.71
2023-05-23T02:28:45.283Z,15.65
2023-05-23T02:31:12.551Z,15.60
2023-05-23T02:33:39.855Z,15.65
2023-05-23T02:36:07.278Z,15.66
2023-05-23T02:38:34.472Z,15.76
2023-05-23T02:41:01.693Z,15.87
2023-05-23T02:43:29.662Z,15.95
2023-05-23T02:45:56.934Z,15.96
2023-05-23T02:48:24.095Z,15.99
2023-05-23T02:50:51.421Z,15.97
2023-05-23T02:53:18.662Z,16.06
2023-05-23T02:55:45.982Z,15.67
2023-05-23T02:58:13.256Z,15.34
2023-05-23T03:00:40.387Z,15.56
2023-05-23T03:03:07.865Z,15.64
2023-05-23T03:05:36.425Z,15.74
2023-05-23T03:08:03.642Z,15.78
2023-05-23T03:10:30.753Z,16.02
2023-05-23T03:12:57.958Z,15.99
2023-05-23T03:15:25.230Z,16.05
2023-05-23T03:17:52.427Z,15.96
2023-05-23T03:20:19.676Z,16.17
2023-05-23T03:22:46.904Z,16.28
2023-05-23T03:25:16.254Z,16.20
2023-05-23T03:27:43.420Z,16.05
2023-05-23T03:30:11.039Z,16.27
2023-05-23T03:32:38.441Z,16.64
2023-05-23T03:35:06.325Z,16.40
2023-05-23T03:37:33.530Z,16.34
2023-05-23T03:40:01.034Z,16.29
2023-05-23T03:42:28.622Z,16.19
2023-05-23T03:44:56.692Z,16.52
2023-05-23T03:47:24.293Z,16.29
2023-05-23T03:49:51.700Z,16.67
2023-05-23T03:52:19.013Z,16.23
2023-05-23T03:54:46.731Z,16.13
2023-05-23T03:57:13.960Z,16.37
2023-05-23T03:59:41.454Z,16.34
2023-05-23T04:02:11.760Z,16.28
2023-05-23T04:04:39.620Z,16.32
2023-05-23T04:07:08.415Z,16.34
2023-05-23T04:09:35.670Z,16.44
2023-05-23T04:12:06.068Z,16.48
2023-05-23T04:14:33.706Z,16.73
2023-05-23T04:17:01.532Z,16.45
2023-05-23T04:19:29.874Z,16.39
2023-05-23T04:21:57.369Z,16.53
2023-05-23T04:24:24.622Z,16.42
2023-05-23T04:26:52.050Z,16.41
2023-05-23T04:29:19.311Z,16.80
2023-05-23T04:31:46.724Z,16.56
2023-05-23T04:34:14.903Z,16.80
2023-05-23T04:36:44.710Z,16.78
2023-05-23T04:39:12.543Z,16.92
2023-05-23T04:41:54.479Z,16.99
2023-05-23T04:44:42.883Z,16.95
2023-05-23T04:47:15.878Z,16.82
2023-05-23T04:49:54.963Z,16.93
2023-05-23T04:52:22.211Z,16.59
2023-05-23T04:54:50.197Z,16.57
2023-05-23T04:57:17.593Z,16.73
2023-05-23T04:59:44.976Z,16.79
2023-05-23T05:02:12.137Z,16.99
2023-05-23T05:04:39.422Z,16.92
2023-05-23T05:07:06.747Z,17.19
2023-05-23T05:09:34.759Z,16.88
2023-05-23T05:12:02.049Z,17.00
2023-05-23T05:14:31.218Z,17.01
2023-05-23T05:16:58.578Z,17.06
2023-05-23T05:19:32.949Z,17.10
2023-05-23T05:22:00.284Z,16.93
2023-05-23T05:24:29.013Z,17.12
2023-05-23T05:26:56.168Z,17.24
2023-05-23T05:29:24.431Z,17.04
2023-05-23T05:31:53.300Z,17.25
2023-05-23T05:34:21.183Z,17.46
2023-05-23T05:36:48.493Z,17.37
2023-05-23T05:39:18.075Z,17.18
2023-05-23T05:41:45.353Z,17.38
2023-05-23T05:44:14.611Z,17.31
2023-05-23T05:46:41.951Z,17.46
2023-05-23T05:49:10.306Z,17.49
2023-05-23T05:51:39.303Z,17.46
2023-05-23T05:54:06.727Z,17.30
2023-05-23T05:56:34.065Z,17.05
2023-05-23T05:59:01.833Z,17.36
2023-05-23T06:01:30.778Z,17.43
2023-05-23T06:03:58.552Z,17.42
2023-05-23T06:06:26.383Z,17.41
2023-05-23T06:08:54.297Z,17.47
2023-05-23T06:11:21.403Z,17.61
2023-05-23T06:13:48.586Z,17.82
2023-05-23T06:16:15.794Z,17.78
2023-05-23T06:18:45.015Z,17.64
2023-05-23T06:21:12.535Z,17.94
2023-05-23T06:23:39.695Z,18.07
2023-05-23T06:26:10.600Z,18.12
2023-05-23T06:28:41.992Z,18.32
2023-05-23T06:31:12.249Z,18.32
2023-05-23T06:33:39.524Z,18.35
2023-05-23T06:36:06.880Z,18.47
2023-05-23T06:38:34.085Z,18.51
2023-05-23T06:41:02.397Z,18.55
2023-05-23T06:43:30.658Z,18.54
2023-05-23T06:46:13.992Z,18.46
2023-05-23T06:48:41.174Z,18.36
2023-05-23T06:51:10.410Z,18.56
2023-05-23T06:53:38.021Z,18.57
2023-05-23T06:56:05.444Z,18.50
2023-05-23T06:58:38.956Z,18.65
2023-05-23T07:01:07.160Z,18.60
2023-05-23T07:03:41.517Z,18.79
2023-05-23T07:06:09.960Z,18.65
2023-05-23T07:08:38.665Z,18.18
2023-05-23T07:11:06.775Z,18.46
2023-05-23T07:13:40.269Z,18.42
2023-05-23T07:16:09.623Z,18.52
2023-05-23T07:18:46.391Z,18.62
2023-05-23T07:21:13.559Z,18.75
2023-05-23T07:23:40.789Z,18.65
2023-05-23T07:26:09.729Z,18.74
2023-05-23T07:28:51.391Z,18.94
2023-05-23T07:31:18.727Z,18.80
2023-05-23T07:33:45.960Z,18.69
2023-05-23T07:36:20.019Z,18.67
2023-05-23T07:38:47.318Z,19.02
2023-05-23T07:41:14.957Z,18.96
2023-05-23T07:43:42.095Z,19.05
2023-05-23T07:46:09.698Z,19.08
2023-05-23T07:48:38.333Z,19.23
2023-05-23T07:51:05.939Z,19.40
2023-05-23T07:53:33.773Z,19.34
2023-05-23T07:56:03.906Z,19.44
2023-05-23T07:58:36.227Z,19.49
2023-05-23T08:01:03.568Z,19.51
2023-05-23T08:03:57.619Z,19.31
2023-05-23T08:06:31.799Z,19.41
2023-05-23T08:09:02.017Z,19.32
2023-05-23T08:11:31.267Z,19.54
2023-05-23T08:14:01.256Z,19.71
2023-05-23T08:16:37.806Z,19.92
2023-05-23T08:19:10.410Z,20.00
2023-05-23T08:21:38.373Z,20.13
2023-05-23T08:24:05.818Z,20.13
2023-05-23T08:26:37.469Z,19.99
2023-05-23T08:29:06.642Z,19.91
2023-05-23T08:31:36.623Z,19.99
2023-05-23T08:34:05.084Z,20.16
2023-05-23T08:36:34.169Z,20.31
2023-05-23T08:39:02.062Z,20.39
2023-05-23T08:41:32.367Z,20.37
2023-05-23T08:44:06.278Z,20.27
2023-05-23T08:46:42.909Z,20.32
2023-05-23T08:49:10.790Z,20.46
2023-05-23T08:51:38.492Z,20.66
2023-05-23T08:54:14.910Z,20.66
2023-05-23T08:56:43.908Z,20.69
2023-05-23T08:59:12.896Z,20.57
2023-05-23T09:01:42.155Z,20.71
2023-05-23T09:04:12.209Z,20.88
2023-05-23T09:06:48.208Z,21.03
2023-05-23T09:09:15.515Z,20.92
2023-05-23T09:11:45.798Z,20.83
2023-05-23T09:14:14.682Z,20.82
2023-05-23T09:16:46.864Z,20.93
2023-05-23T09:19:16.490Z,21.24
2023-05-23T09:21:53.311Z,21.26
2023-05-23T09:24:33.915Z,21.08
2023-05-23T09:27:01.764Z,21.16
2023-05-23T09:29:29.226Z,21.28
2023-05-23T09:32:19.799Z,21.27
2023-05-23T09:35:03.220Z,21.48
2023-05-23T09:37:32.924Z,21.52
2023-05-23T09:40:01.929Z,21.58
2023-05-23T09:42:34.177Z,21.64
2023-05-23T09:45:03.987Z,21.77
2023-05-23T09:47:32.347Z,21.82
2023-05-23T09:49:59.505Z,21.92
2023-05-23T09:52:27.088Z,21.60
2023-05-23T09:54:54.582Z,21.49
2023-05-23T09:57:23.280Z,21.62
2023-05-23T09:59:54.530Z,21.69
2023-05-23T10:02:42.227Z,21.84
2023-05-23T10:05:17.137Z,22.10
2023-05-23T10:07:45.235Z,21.92
2023-05-23T10:10:13.428Z,22.17
2023-05-23T10:12:53.696Z,22.08
2023-05-23T10:15:23.875Z,22.11
2023-05-23T10:18:01.111Z,22.23
2023-05-23T10:20:34.036Z,22.01
2023-05-23T10:23:02.478Z,22.21
2023-05-23T10:25:29.704Z,22.13
2023-05-23T10:28:03.879Z,21.98
2023-05-23T10:30:32.273Z,22.14
2023-05-23T10:33:00.643Z,22.05
2023-05-23T10:36:09.171Z,21.78
2023-05-23T10:38:48.379Z,21.60
2023-05-23T10:41:18.642Z,21.34
2023-05-23T10:44:09.979Z,21.27
2023-05-23T10:46:58.583Z,21.27
2023-05-23T10:49:46.988Z,21.13
2023-05-23T10:52:16.769Z,21.21
2023-05-23T10:54:49.290Z,21.18
2023-05-23T10:57:18.863Z,21.20
2023-05-23T10:59:47.030Z,21.13
2023-05-23T11:02:16.051Z,21.04
2023-05-23T11:04:44.748Z,21.14
2023-05-23T11:07:29.821Z,21.12
2023-05-23T11:10:14.130Z,21.25
2023-05-23T11:12:44.245Z,21.29
2023-05-23T11:15:17.364Z,21.39
2023-05-23T11:17:55.428Z,21.41
2023-05-23T11:20:27.445Z,21.39
2023-05-23T11:23:05.523Z,21.36
2023-05-23T11:25:52.098Z,21.55
2023-05-23T11:28:20.068Z,21.75
2023-05-23T11:30:50.926Z,21.96
2023-05-23T11:33:18.267Z,22.09
2023-05-23T11:35:47.734Z,22.14
2023-05-23T11:38:18.358Z,22.28
2023-05-23T11:40:48.949Z,22.11
2023-05-23T11:43:18.004Z,22.23
2023-05-23T11:45:48.037Z,22.29
2023-05-23T11:48:16.917Z,22.42
2023-05-23T11:50:52.185Z,22.44
2023-05-23T11:53:21.783Z,22.21
2023-05-23T11:56:01.627Z,22.22
2023-05-23T11:58:31.114Z,22.05
2023-05-23T12:01:03.339Z,22.13
2023-05-23T12:03:34.474Z,22.33
2023-05-23T12:06:04.255Z,22.28
2023-05-23T12:08:31.384Z,22.56
2023-05-23T12:11:00.156Z,22.50
2023-05-23T12:13:30.429Z,22.51
2023-05-23T12:15:59.866Z,22.30
2023-05-23T12:18:32.789Z,22.31
2023-05-23T12:21:02.968Z,22.26
2023-05-23T12:23:31.772Z,22.07
2023-05-23T12:26:00.524Z,22.07
2023-05-23T12:28:38.912Z,21.96
2023-05-23T12:31:12.842Z,22.16
2023-05-23T12:33:41.300Z,21.81
2023-05-23T12:36:08.535Z,21.73
2023-05-23T12:38:38.065Z,21.83
2023-05-23T12:41:22.013Z,21.63
2023-05-23T12:43:51.916Z,21.71
2023-05-23T12:46:20.448Z,21.77
2023-05-23T12:48:47.721Z,21.96
2023-05-23T12:51:15.394Z,21.83
2023-05-23T12:53:42.809Z,22.03
2023-05-23T12:56:09.941Z,21.97
2023-05-23T12:58:37.220Z,22.16
2023-05-23T13:01:04.522Z,22.17
2023-05-23T13:03:31.927Z,22.31
2023-05-23T13:05:59.316Z,22.37
2023-05-23T13:08:29.889Z,22.17
2023-05-23T13:10:57.648Z,22.30
2023-05-23T13:13:26.768Z,22.38
2023-05-23T13:15:54.100Z,22.28
2023-05-23T13:18:21.404Z,22.37
2023-05-23T13:20:48.585Z,22.43
2023-05-23T13:23:15.970Z,22.75
2023-05-23T13:25:43.238Z,22.69
2023-05-23T13:28:10.600Z,22.89
2023-05-23T13:30:37.811Z,22.78
2023-05-23T13:33:05.189Z,22.95
2023-05-23T13:35:32.432Z,22.91
2023-05-23T13:37:59.610Z,22.68
2023-05-23T13:40:26.735Z,22.77
2023-05-23T13:42:53.941Z,22.34
2023-05-23T13:45:22.990Z,22.55
2023-05-23T13:47:50.369Z,22.62
2023-05-23T13:50:17.836Z,22.52
2023-05-23T13:52:48.253Z,22.88
2023-05-23T13:55:17.285Z,23.12
2023-05-23T13:57:44.806Z,23.08
2023-05-23T14:00:12.605Z,23.21
2023-05-23T14:02:39.910Z,23.29
2023-05-23T14:05:08.052Z,22.93
2023-05-23T14:07:35.449Z,23.16
2023-05-23T14:10:02.733Z,23.39
2023-05-23T14:12:29.872Z,23.61
2023-05-23T14:14:57.066Z,23.65
2023-05-23T14:17:24.288Z,23.09
2023-05-23T14:19:51.759Z,23.32
2023-05-23T14:22:18.909Z,23.38
2023-05-23T14:24:46.167Z,23.55
2023-05-23T14:27:13.353Z,23.75
2023-05-23T14:29:40.503Z,23.51
2023-05-23T14:32:07.724Z,23.07
2023-05-23T14:34:34.886Z,22.93
2023-05-23T14:37:02.012Z,23.11
2023-05-23T14:39:29.377Z,23.08
2023-05-23T14:41:56.739Z,23.12
2023-05-23T14:44:23.991Z,22.89
2023-05-23T14:46:51.482Z,22.68
2023-05-23T14:49:18.734Z,23.22
2023-05-23T14:51:51.116Z,23.08
2023-05-23T14:54:19.351Z,22.90
2023-05-23T14:56:46.672Z,22.77
2023-05-23T14:59:14.027Z,22.45
2023-05-23T15:01:41.636Z,22.55
2023-05-23T15:04:09.880Z,22.64
2023-05-23T15:06:39.075Z,22.81
2023-05-23T15:09:07.456Z,22.74
2023-05-23T15:11:42.274Z,22.90
2023-05-23T15:14:09.568Z,22.82
2023-05-23T15:16:37.398Z,22.31
2023-05-23T15:19:05.577Z,22.25
2023-05-23T15:21:32.858Z,22.40
2023-05-23T15:24:00.147Z,22.39
2023-05-23T15:26:27.510Z,22.41
2023-05-23T15:28:54.995Z,22.67
2023-05-23T15:31:22.376Z,22.45
2023-05-23T15:33:49.621Z,22.37
2023-05-23T15:36:16.800Z,22.75
2023-05-23T15:38:44.383Z,22.98
2023-05-23T15:41:11.813Z,22.85
2023-05-23T15:43:38.984Z,22.89
2023-05-23T15:46:06.281Z,22.87
2023-05-23T15:48:33.442Z,22.73
2023-05-23T15:51:00.669Z,22.75
2023-05-23T15:53:28.438Z,23.16
2023-05-23T15:55:56.919Z,23.10
2023-05-23T15:58:24.094Z,22.81
2023-05-23T16:00:51.352Z,23.21
2023-05-23T16:03:18.484Z,23.15
2023-05-23T16:05:46.123Z,22.98
2023-05-23T16:08:13.273Z,23.05
2023-05-23T16:10:40.552Z,23.15
2023-05-23T16:13:08.955Z,23.13
2023-05-23T16:15:36.112Z,23.24
2023-05-23T16:18:03.857Z,23.48
2023-05-23T16:20:31.133Z,23.63
2023-05-23T16:22:58.288Z,23.30
2023-05-23T16:25:25.541Z,22.62
2023-05-23T16:27:52.690Z,22.72
2023-05-23T16:30:20.207Z,22.20
2023-05-23T16:32:47.378Z,22.43
2023-05-23T16:35:14.608Z,22.47
2023-05-23T16:37:41.795Z,22.51
2023-05-23T16:40:09.209Z,22.39
2023-05-23T16:42:36.846Z,22.69
2023-05-23T16:45:04.802Z,22.81
2023-05-23T16:47:32.288Z,22.28
2023-05-23T16:49:59.536Z,22.39
2023-05-23T16:52:26.745Z,22.49
2023-05-23T16:54:55.692Z,22.38
2023-05-23T16:57:22.947Z,22.66
2023-05-23T16:59:50.137Z,22.63
2023-05-23T17:02:17.338Z,22.64
2023-05-23T17:04:45.019Z,22.60
2023-05-23T17:07:12.256Z,22.37
2023-05-23T17:09:39.749Z,22.45
2023-05-23T17:12:07.420Z,22.25
2023-05-23T17:14:34.700Z,22.25
2023-05-23T17:17:03.415Z,22.36
2023-05-23T17:19:30.753Z,22.04
2023-05-23T17:22:00.955Z,21.81
2023-05-23T17:24:28.522Z,21.90
2023-05-23T17:26:55.665Z,21.83
2023-05-23T17:29:22.822Z,21.41
2023-05-23T17:31:50.011Z,21.50
2023-05-23T17:37:22.782Z,21.29
2023-05-23T17:39:59.479Z,21.37
2023-05-23T17:43:00.194Z,21.25
2023-05-23T17:46:34.137Z,21.22
2023-05-23T17:49:07.852Z,21.15
2023-05-23T17:51:39.259Z,20.93
2023-05-23T17:54:07.195Z,21.09
2023-05-23T17:56:34.422Z,21.08
2023-05-23T17:59:15.080Z,21.13
2023-05-23T18:01:53.254Z,21.13
2023-05-23T18:04:24.511Z,20.97
2023-05-23T18:06:51.928Z,20.91
2023-05-23T18:09:19.766Z,20.78
2023-05-23T18:11:47.198Z,20.88
2023-05-23T18:14:14.751Z,20.82
2023-05-23T18:16:42.251Z,21.02
2023-05-23T18:19:09.768Z,20.75
2023-05-23T18:21:45.250Z,20.76
2023-05-23T18:24:18.296Z,20.55
2023-05-23T18:26:46.321Z,20.46
2023-05-23T18:29:31.723Z,20.67
2023-05-23T18:31:59.021Z,20.69
2023-05-23T18:34:29.428Z,20.46
2023-05-23T18:36:56.778Z,20.25
2023-05-23T18:39:24.241Z,20.13
2023-05-23T18:41:57.924Z,19.77
2023-05-23T18:44:25.361Z,19.92
2023-05-23T18:46:52.827Z,19.88
2023-05-23T18:49:20.222Z,19.96
2023-05-23T18:51:47.766Z,20.02
2023-05-23T18:54:15.176Z,20.07
2023-05-23T18:56:59.018Z,19.93
2023-05-23T18:59:27.049Z,19.81
2023-05-23T19:01:54.415Z,19.88
2023-05-23T19:04:31.266Z,19.80
2023-05-23T19:06:58.638Z,19.77
2023-05-23T19:09:28.764Z,19.79
2023-05-23T19:12:04.473Z,19.49
2023-05-23T19:14:31.797Z,19.41
2023-05-23T19:16:59.913Z,19.48
2023-05-23T19:19:30.038Z,19.37
2023-05-23T19:21:59.047Z,19.40
2023-05-23T19:24:27.502Z,19.36
2023-05-23T19:26:56.209Z,19.32
2023-05-23T19:29:23.703Z,19.11
2023-05-23T19:31:51.034Z,19.11
2023-05-23T19:34:18.351Z,19.21
2023-05-23T19:36:45.731Z,19.12
2023-05-23T19:39:13.065Z,19.19
2023-05-23T19:41:48.879Z,18.82
2023-05-23T19:44:16.270Z,18.62
2023-05-23T19:46:43.742Z,18.75
2023-05-23T19:49:12.016Z,18.73
2023-05-23T19:51:39.338Z,18.45
2023-05-23T19:54:06.738Z,18.65
2023-05-23T19:56:35.896Z,18.24
2023-05-23T19:59:03.295Z,18.37
2023-05-23T20:01:34.170Z,18.17
2023-05-23T20:04:13.254Z,18.15
2023-05-23T20:06:58.917Z,18.34
2023-05-23T20:09:28.889Z,18.16
2023-05-23T20:11:59.388Z,18.09
2023-05-23T20:14:28.161Z,18.29
2023-05-23T20:16:56.592Z,18.14
2023-05-23T20:19:24.345Z,17.88
2023-05-23T20:22:21.806Z,17.83
2023-05-23T20:24:49.127Z,17.88
2023-05-23T20:27:18.046Z,17.86
2023-05-23T20:29:51.616Z,17.85
2023-05-23T20:32:28.480Z,17.90
2023-05-23T20:35:18.650Z,17.61
2023-05-23T20:37:51.316Z,17.53
2023-05-23T20:40:18.713Z,17.75
2023-05-23T20:42:46.250Z,17.63
2023-05-23T20:45:14.054Z,17.45
2023-05-23T20:47:42.356Z,17.39
2023-05-23T20:50:11.866Z,17.26
2023-05-23T20:52:41.414Z,17.73
2023-05-23T20:55:10.008Z,17.47
2023-05-23T20:57:37.834Z,17.46
2023-05-23T21:00:13.123Z,17.17
2023-05-23T21:02:41.708Z,16.90
2023-05-23T21:05:10.740Z,16.99
2023-05-23T21:07:38.491Z,17.02
2023-05-23T21:10:06.480Z,17.10
2023-05-23T21:12:33.977Z,16.81
2023-05-23T21:15:17.689Z,17.05
2023-05-23T21:17:45.768Z,16.79
2023-05-23T21:20:13.504Z,16.87
2023-05-23T21:22:41.125Z,16.55
2023-05-23T21:25:08.859Z,16.88
2023-05-23T21:27:36.062Z,16.71
2023-05-23T21:30:05.256Z,16.95
2023-05-23T21:32:33.132Z,16.77
2023-05-23T21:35:00.497Z,16.62
2023-05-23T21:37:30.467Z,16.31
2023-05-23T21:39:57.775Z,16.67
2023-05-23T21:42:25.619Z,16.43
2023-05-23T21:44:52.961Z,16.52
2023-05-23T21:47:21.387Z,16.75
2023-05-23T21:49:48.821Z,16.72
2023-05-23T21:52:16.509Z,16.79
2023-05-23T21:54:45.971Z,16.87
2023-05-23T21:57:13.403Z,16.77
2023-05-23T21:59:41.671Z,16.78
2023-05-23T22:02:09.010Z,16.84
2023-05-23T22:04:37.026Z,16.94
2023-05-23T22:07:07.075Z,16.92
2023-05-23T22:09:34.591Z,16.88
2023-05-23T22:12:05.655Z,16.99
2023-05-23T22:14:36.277Z,16.74
2023-05-23T22:17:04.643Z,16.80
2023-05-23T22:19:31.855Z,16.78
2023-05-23T22:21:59.223Z,16.77
2023-05-23T22:24:32.929Z,16.61
2023-05-23T22:27:03.349Z,16.27
2023-05-23T22:29:31.060Z,16.55
2023-05-23T22:31:58.437Z,16.53
2023-05-23T22:34:25.800Z,16.39
2023-05-23T22:36:53.189Z,16.62
2023-05-23T22:39:20.488Z,16.25
2023-05-23T22:41:56.028Z,16.23
2023-05-23T22:44:28.041Z,16.43
2023-05-23T22:47:24.292Z,16.12
2023-05-23T22:50:04.304Z,16.14
2023-05-23T22:52:37.109Z,16.23
2023-05-23T22:55:08.404Z,16.36
2023-05-23T22:57:40.835Z,16.23
2023-05-23T23:00:11.391Z,16.37
2023-05-23T23:02:38.955Z,16.00
2023-05-23T23:05:06.832Z,15.83
2023-05-23T23:07:34.218Z,15.95
2023-05-23T23:10:01.895Z,15.99
2023-05-23T23:12:29.372Z,15.99
2023-05-23T23:14:56.773Z,16.01
2023-05-23T23:17:24.171Z,16.07
2023-05-23T23:19:51.596Z,15.97
2023-05-23T23:22:21.528Z,16.06
2023-05-23T23:24:55.822Z,16.20
2023-05-23T23:27:30.974Z,15.90
2023-05-23T23:29:59.198Z,16.15
2023-05-23T23:32:26.849Z,16.19
2023-05-23T23:34:54.198Z,15.97
2023-05-23T23:37:21.726Z,15.77
2023-05-23T23:39:49.057Z,15.80
2023-05-23T23:45:04.596Z,15.79
2023-05-23T23:47:47.839Z,15.83
2023-05-23T23:50:15.494Z,15.78
2023-05-23T23:52:45.983Z,15.93
2023-05-23T23:55:13.430Z,15.83
2023-05-23T23:57:41.077Z,15.94
